a
b
c
d

Обмен USD/RUB Москва, Ленинский проспект

В данном разделе сайта представлен курс обмена доллара в Москве на текущий день. Статистические данные взяты из открытых источников. Для того, чтобы удостовериться в актуальности представленных сведений обмена USD/RUB в Москве на конкретный момент времени, свяжитесь с представителями банка по указанному в карточке телефону. Для просмотра номера телефона и других сведений о банке достаточно кликнуть на его название в общей таблице. Рынок наличной валюты достаточно подвижен, поэтому данные о курсе обмена доллара и рубля постоянно обновляются. В разделе "Рынок наличной валюты" Вы сможете изучить курс покупки-продажи для разных банков и выбрать наиболее выгодный вариант обмена валюты.


Показать полностью

Обмен Долларов США и Российских рублей в Москве у метро Ленинский проспект


Название банка Покупка Продажа Сумма Комм. Время
"Тимер Банк" (ПАО) 63.64 65.62 100.0 нет 08.08.2018
ПАО "МИнБанк" 63.6 64.9 1.0 нет 08.08.2018
МБО "ОРГБАНК" (ООО) (ДО "Гагаринский") 62.5 64.5 1.0 нет 22.07.2018
АО КБ "ЮНИСТРИМ" ОКВКУ № 334 62.31 62.99 10000.0 нет 15.07.2018
АО КБ "ЮНИСТРИМ" ОКВКУ № 334 62.31 62.99 20000.0 нет 15.07.2018
АО КБ "ЮНИСТРИМ" ОКВКУ № 334 62 62.99 100.0 нет 15.07.2018
ПАО "БИНБАНК" ДО "Ленинский проспект/77" 61.88 62.31 1.0 нет 07.06.2018
АО КБ "ЮНИСТРИМ" ОО №149 61.4 63.2 1001.0 нет 30.05.2018
АО КБ "ЮНИСТРИМ" ОО №149 61.4 63.2 10001.0 нет 30.05.2018
АО КБ "ЮНИСТРИМ" ОО №149 61.4 63.2 1.0 нет 30.05.2018
МБО "ОРГБАНК" (ООО) (ОПЕРУ) 62 63 1.0 нет 30.05.2018
АО КБ "ЮНИСТРИМ" ОКВКУ № 332 57.9 58.5 10000.0 нет 07.04.2018
АО КБ "ЮНИСТРИМ" ОКВКУ № 332 57.9 58.5 20000.0 нет 07.04.2018
ООО ИКБ "ЛОГОС" ДО "Ленинский проспект" 57.8 58.4 100000.0 нет 06.04.2018
ООО ИКБ "ЛОГОС" ДО "Ленинский проспект" 57.7 58.4 10000.0 нет 06.04.2018
ООО ИКБ "ЛОГОС" ДО "Ленинский проспект" 57.5 58.4 1000.0 нет 06.04.2018
АО КБ "ЮНИСТРИМ" оквку № 318 58.01 58.5 10000.0 нет 06.04.2018
АО КБ "ЮНИСТРИМ" оквку № 318 58.01 58.5 1000.0 нет 06.04.2018
АО КБ "ЮНИСТРИМ" оквку № 318 58.01 58.5 50000.0 нет 06.04.2018
ООО ИКБ "ЛОГОС" оквку "На Орджоникидзе" 58 58.15 50000.0 нет 06.04.2018
ООО ИКБ "ЛОГОС" оквку "На Орджоникидзе" 57.7 58.2 1000.0 нет 06.04.2018
АО КБ "ЮНИСТРИМ" ОО №33 57.85 58.25 10000.0 нет 06.04.2018
АО КБ "ЮНИСТРИМ" ОО №33 57.85 58.25 50000.0 нет 06.04.2018
ПАО "БИНБАНК" ДО "Ломоносовский" 57.6 57.98 10000.0 нет 06.04.2018
АКБ "СЛАВИЯ" (АО) ОКВКУ "Фуд Сити" 57.74 0 200000.0 нет 03.04.2018
АКБ "СЛАВИЯ" (АО) ОКВКУ "Фуд Сити" 57.74 0 10000.0 нет 03.04.2018
ОАО КБ "ЮНИСТРИМ" ОО №33 57.7 57.85 50000.0 нет 13.10.2017
ОАО КБ "ЮНИСТРИМ" ОО №33 57.7 57.85 10000.0 нет 13.10.2017
ПАО АКБ "Акцент" оквку "Фуд Сити" 58 0 80000.0 нет 02.10.2017
ПАО АКБ "Акцент" оквку "Фуд Сити" 58 0 10000.0 нет 02.10.2017
АО "РФИ БАНК" оквку № 121 "Академическая" 60.31 60.99 30000.0 нет 04.08.2017
АО "РФИ БАНК" оквку № 121 "Академическая" 60.31 60.99 10000.0 нет 04.08.2017
АО "РФИ БАНК" оквку № 121 "Академическая" 60.2 60.99 100.0 нет 04.08.2017
АО "РФИ БАНК" оквку № 132 60.4 60.75 10000.0 нет 02.08.2017
АО "РФИ БАНК" оквку № 132 60.4 60.75 50000.0 нет 02.08.2017
Банк "СИБЭС" (АО) оквку "Вавилова" 58.7 59.35 100 нет 13.03.2017
Банк "СИБЭС" (АО) оквку "Вавилова" 58.4 59.6 10000 нет 09.03.2017
Банк "СИБЭС" (АО) оквку "Вавилова" 57.85 58.4 5000 нет 07.03.2017
ООО КБ "ФПК" ОКВКУ № 27 "Академическая" 0 58.3 10000 нет 07.03.2017
Банк "СИБЭС" (АО) оквку "Вавилова" 58.1 58.85 1000 нет 05.03.2017
Банк "Солидарность" АО 58.4 59.8 5000 нет 09.02.2017
Банк "Солидарность" АО 58.4 59.8 100 нет 09.02.2017
Банк "Солидарность" АО 58.4 59.8 10000 нет 09.02.2017
Банк "Солидарность" АО 58.4 59.8 1000 нет 09.02.2017
ООО КБ "ФПК" ОКВКУ № 27 "Академическая" 62.6 63.3 100 нет 11.12.2016
ООО КБ "ФПК" ОКВКУ № 27 "Академическая" 62.6 63.3 1 нет 11.12.2016
ООО КБ "ФПК" ОКВКУ № 27 "Академическая" 62.6 63.3 5000 нет 11.12.2016
ООО КБ "ФПК" ОКВКУ № 27 "Академическая" 62.6 63.3 1000 нет 11.12.2016
ОАО МАБ "Темпбанк" оквку №63 67.5 0 100000 Нет 07.09.2015
ОАО МАБ "Темпбанк" оквку №63 67.5 0 10000 Нет 07.09.2015

Погода сейчас

-12°C
Переменная облачность, влажность 84%
Москва